Time;durP1;ratioP1;P1;durP2;ratioP2;P2;SDS_P1;SDS_P2;PMS_P1;PMS_P2;Temp;Humidity;BMP_temperature;BMP_pressure;BME280_temperature;BME280_humidity;BME280_pressure;Samples;Min_cycle;Max_cycle;Signal;HPM_P1;HPM_P2
2022/08/11 00:01:14;;;;;;;4.93;4.43;;;17.30;99.90;;;;;;4840171;29;20133;-67
2022/08/11 00:04:01;;;;;;;5.85;4.63;;;17.30;99.90;;;;;;4823367;29;20054;-68
2022/08/11 00:06:34;;;;;;;6.55;4.60;;;17.30;99.90;;;;;;4840713;29;20506;-67
2022/08/11 00:09:01;;;;;;;5.50;4.32;;;17.20;99.90;;;;;;4843685;29;20379;-67
2022/08/11 00:11:37;;;;;;;5.53;4.60;;;17.20;99.90;;;;;;4847327;29;20139;-67
2022/08/11 00:14:11;;;;;;;4.90;4.32;;;17.20;99.90;;;;;;4845391;29;20094;-67
2022/08/11 00:16:38;;;;;;;6.15;4.80;;;17.20;99.90;;;;;;4834826;29;20399;-67
2022/08/11 00:19:04;;;;;;;6.53;4.75;;;17.20;99.90;;;;;;4844432;29;20529;-67
2022/08/11 00:21:38;;;;;;;7.72;4.90;;;17.10;99.90;;;;;;4843861;29;20089;-68
2022/08/11 00:24:04;;;;;;;7.20;4.38;;;17.10;99.90;;;;;;4842241;29;20134;-68
2022/08/11 00:26:35;;;;;;;6.57;4.60;;;17.10;99.90;;;;;;4826248;29;20078;-67
2022/08/11 00:29:20;;;;;;;5.43;4.70;;;17.10;99.90;;;;;;4844206;29;20409;-67
2022/08/11 00:32:12;;;;;;;5.60;4.93;;;17.10;99.90;;;;;;4830985;29;20046;-68
2022/08/11 00:50:57;;;;;;;6.80;4.88;;;16.90;99.90;;;;;;4840290;29;20170;-68
2022/08/11 00:54:00;;;;;;;7.28;5.28;;;16.80;99.90;;;;;;4827287;29;20049;-68
2022/08/11 00:57:03;;;;;;;5.95;5.20;;;16.80;99.90;;;;;;4836849;29;20085;-68
2022/08/11 01:00:18;;;;;;;5.70;5.05;;;16.80;99.90;;;;;;4799990;29;20107;-67
2022/08/11 01:03:19;;;;;;;6.75;5.28;;;16.80;99.90;;;;;;4806939;29;20050;-68
2022/08/11 01:09:35;;;;;;;6.70;5.28;;;16.70;99.90;;;;;;4830506;29;20046;-68
2022/08/11 01:12:19;;;;;;;7.93;5.72;;;16.70;99.90;;;;;;4821295;29;20086;-68
2022/08/11 01:15:06;;;;;;;6.35;4.97;;;16.70;99.90;;;;;;4828880;29;20053;-68
2022/08/11 01:18:09;;;;;;;6.90;5.38;;;16.60;99.90;;;;;;4826417;29;20058;-68
2022/08/11 01:24:38;;;;;;;5.75;5.15;;;16.60;99.90;;;;;;4824108;29;20005;-68
2022/08/11 01:27:57;;;;;;;5.35;4.82;;;16.50;99.90;;;;;;4815503;29;20402;-69
2022/08/11 01:30:55;;;;;;;5.55;5.05;;;16.50;99.90;;;;;;4820267;29;20468;-69
2022/08/11 01:33:37;;;;;;;5.50;4.90;;;16.50;99.90;;;;;;4825795;29;20050;-68
2022/08/11 01:40:28;;;;;;;6.35;5.13;;;16.50;99.90;;;;;;4823896;29;20395;-68
2022/08/11 01:46:54;;;;;;;7.25;5.82;;;16.40;99.90;;;;;;4829973;29;20064;-68
2022/08/11 01:49:59;;;;;;;8.63;5.97;;;16.40;99.90;;;;;;4790919;29;20047;-68
2022/08/11 01:52:57;;;;;;;5.85;5.35;;;16.40;99.90;;;;;;4822178;29;20070;-68
2022/08/11 01:55:56;;;;;;;7.28;5.78;;;16.40;99.90;;;;;;4829783;29;20048;-69
2022/08/11 01:59:09;;;;;;;7.45;6.03;;;16.40;99.90;;;;;;4833783;29;20054;-69
2022/08/11 02:01:35;;;;;;;;;;;16.30;99.90;;;;;;4815986;29;20133;-69
2022/08/11 02:04:15;;;;;;;7.97;6.15;;;16.30;99.90;;;;;;4827860;29;20378;-69
2022/08/11 02:06:54;;;;;;;8.30;6.60;;;16.30;99.90;;;;;;4804468;29;20055;-69
2022/08/11 02:09:44;;;;;;;9.65;6.78;;;16.30;99.90;;;;;;4835634;29;20062;-70
2022/08/11 02:12:39;;;;;;;7.13;6.53;;;16.30;99.90;;;;;;4825712;29;20072;-69
2022/08/11 02:15:19;;;;;;;6.88;6.18;;;16.30;99.90;;;;;;4827171;29;20053;-69
2022/08/11 02:18:10;;;;;;;7.47;6.25;;;16.20;99.90;;;;;;4808350;29;20053;-69
2022/08/11 02:23:58;;;;;;;9.68;6.55;;;16.20;99.90;;;;;;4842083;29;20157;-67
2022/08/11 02:26:33;;;;;;;6.75;6.03;;;16.20;99.90;;;;;;4819229;29;20525;-67
2022/08/11 02:29:21;;;;;;;9.18;7.43;;;16.20;99.90;;;;;;4822245;29;20058;-67
2022/08/11 02:34:43;;;;;;;8.73;7.35;;;16.10;99.90;;;;;;4835070;29;20503;-67
2022/08/11 02:37:27;;;;;;;7.85;7.13;;;16.10;99.90;;;;;;4814713;29;20109;-67
2022/08/11 02:39:56;;;;;;;8.52;7.57;;;16.10;99.90;;;;;;4800604;29;20085;-67
2022/08/11 02:42:31;;;;;;;8.40;7.35;;;16.10;99.90;;;;;;4839253;29;20117;-67
2022/08/11 02:45:38;;;;;;;8.20;7.40;;;16.10;99.90;;;;;;4820087;29;20062;-67
2022/08/11 02:51:54;;;;;;;8.70;7.43;;;16.00;99.90;;;;;;4799605;29;20392;-67
2022/08/11 02:54:32;;;;;;;8.20;7.43;;;16.00;99.90;;;;;;4823709;29;20057;-67
2022/08/11 02:57:22;;;;;;;9.40;8.20;;;16.00;99.90;;;;;;4833554;29;20091;-67
2022/08/11 02:59:54;;;;;;;8.80;8.00;;;16.00;99.90;;;;;;4824890;29;20065;-67
2022/08/11 03:02:50;;;;;;;10.57;8.18;;;15.90;99.90;;;;;;4826756;29;20065;-67
2022/08/11 03:05:33;;;;;;;9.00;8.05;;;15.90;99.90;;;;;;4835276;29;20047;-67
2022/08/11 03:08:06;;;;;;;10.30;8.48;;;15.90;99.90;;;;;;4833730;29;20061;-67
2022/08/11 03:10:42;;;;;;;10.60;8.50;;;15.90;99.90;;;;;;4809520;29;20093;-67
2022/08/11 03:16:56;;;;;;;11.77;9.68;;;15.80;99.90;;;;;;4786171;29;20055;-67
2022/08/11 03:19:45;;;;;;;14.10;9.70;;;15.80;99.90;;;;;;4785207;29;20553;-67
2022/08/11 03:22:32;;;;;;;10.13;9.13;;;15.80;99.90;;;;;;4817978;29;20054;-67
2022/08/11 03:25:17;;;;;;;10.90;8.98;;;15.80;99.90;;;;;;4822052;29;20395;-67
2022/08/11 03:28:10;;;;;;;11.02;9.05;;;15.80;99.90;;;;;;4823438;29;20050;-67
2022/08/11 03:30:42;;;;;;;10.30;8.70;;;15.70;99.90;;;;;;4820611;29;20077;-67
2022/08/11 03:36:51;;;;;;;10.27;9.27;;;15.70;99.90;;;;;;4831902;29;20042;-67
2022/08/11 03:39:31;;;;;;;11.38;9.90;;;15.70;99.90;;;;;;4825494;29;20046;-67
2022/08/11 03:42:24;;;;;;;9.93;8.90;;;15.70;99.90;;;;;;4833286;29;20365;-67
2022/08/11 03:44:58;;;;;;;12.07;10.57;;;15.60;99.90;;;;;;4823317;29;20367;-67
2022/08/11 03:47:51;;;;;;;12.98;9.65;;;15.60;99.90;;;;;;4813104;29;20080;-67
2022/08/11 03:50:31;;;;;;;13.40;10.15;;;15.60;99.90;;;;;;4822066;29;20554;-68
2022/08/11 03:53:26;;;;;;;12.90;10.88;;;15.60;99.90;;;;;;4832793;29;20124;-68
2022/08/11 03:56:30;;;;;;;11.48;10.10;;;15.60;99.90;;;;;;4843766;29;20053;-68
2022/08/11 03:59:16;;;;;;;12.25;10.07;;;15.60;99.90;;;;;;4832978;29;20128;-68
2022/08/11 04:01:54;;;;;;;13.48;10.85;;;15.60;99.90;;;;;;4840819;29;20085;-68
2022/08/11 04:04:41;;;;;;;11.73;10.32;;;15.60;99.90;;;;;;4844587;29;20559;-68
2022/08/11 04:07:34;;;;;;;12.80;10.80;;;15.60;99.90;;;;;;4841832;29;20558;-68
2022/08/11 04:09:59;;;;;;;14.32;11.05;;;15.50;99.90;;;;;;4827116;29;20102;-68
2022/08/11 04:12:51;;;;;;;15.05;11.27;;;15.50;99.90;;;;;;4836625;29;20069;-68
2022/08/11 04:19:04;;;;;;;13.82;11.65;;;15.50;99.90;;;;;;4841920;29;21042;-68
2022/08/11 04:22:07;;;;;;;12.35;10.45;;;15.50;99.90;;;;;;4839120;29;20062;-68
2022/08/11 04:25:03;;;;;;;13.82;10.68;;;15.50;99.90;;;;;;4840949;29;20495;-68
2022/08/11 04:27:48;;;;;;;13.57;11.57;;;15.50;99.90;;;;;;4844735;29;20170;-68
2022/08/11 04:30:26;;;;;;;12.90;11.43;;;15.50;99.90;;;;;;4829054;29;20073;-68
2022/08/11 04:32:58;;;;;;;14.77;11.00;;;15.50;99.90;;;;;;4849042;29;20058;-68
2022/08/11 04:35:51;;;;;;;13.15;11.27;;;15.50;99.90;;;;;;4841563;29;20088;-68
2022/08/11 04:38:54;;;;;;;15.27;11.50;;;15.50;99.90;;;;;;4847650;29;20132;-68
2022/08/11 04:45:26;;;;;;;12.00;10.43;;;15.50;99.90;;;;;;4839955;29;20058;-68
2022/08/11 05:07:01;;;;;;;12.32;11.07;;;15.50;99.90;;;;;;4837676;29;20114;-69
2022/08/11 05:10:11;;;;;;;12.90;10.88;;;15.60;99.90;;;;;;4808405;29;20454;-69
2022/08/11 06:00:09;;;;;;;13.88;9.00;;;19.00;99.90;;;;;;4847333;29;20539;-68
2022/08/11 06:03:29;;;;;;;9.13;8.23;;;20.50;99.90;;;;;;4842530;29;20543;-68
2022/08/11 06:05:57;;;;;;;9.57;8.52;;;21.40;99.90;;;;;;4839590;29;20495;-67
2022/08/11 06:08:41;;;;;;;9.10;8.10;;;22.10;99.90;;;;;;4847575;29;20420;-68
2022/08/11 06:11:07;;;;;;;8.90;8.00;;;22.70;99.90;;;;;;4841128;29;20057;-68
2022/08/11 06:13:34;;;;;;;10.95;7.97;;;23.00;99.90;;;;;;4861247;29;20041;-68
2022/08/11 06:16:00;;;;;;;8.27;7.32;;;23.30;99.90;;;;;;4861506;29;20124;-68
2022/08/11 06:18:28;;;;;;;8.68;7.78;;;23.50;99.90;;;;;;4830467;29;20070;-68
2022/08/11 06:20:56;;;;;;;8.50;6.22;;;23.20;99.90;;;;;;4843003;29;20084;-68
2022/08/11 06:23:29;;;;;;;8.15;7.35;;;22.40;99.90;;;;;;4841574;29;20041;-69
2022/08/11 06:25:57;;;;;;;9.43;6.80;;;21.60;99.90;;;;;;4826650;29;20054;-68
2022/08/11 06:28:35;;;;;;;7.60;6.90;;;21.10;99.90;;;;;;4842866;29;20066;-68
2022/08/11 06:31:10;;;;;;;9.27;7.13;;;20.60;99.90;;;;;;4825734;29;20064;-68
2022/08/11 06:33:52;;;;;;;7.68;6.97;;;20.30;99.90;;;;;;4842357;29;20094;-68
2022/08/11 06:36:37;;;;;;;10.52;6.75;;;20.10;99.90;;;;;;4842801;29;20137;-68
2022/08/11 06:39:06;;;;;;;6.65;6.05;;;19.90;99.90;;;;;;4842213;29;20058;-68
2022/08/11 06:41:43;;;;;;;8.32;6.10;;;19.80;99.90;;;;;;4841643;29;20066;-68
2022/08/11 06:44:12;;;;;;;6.88;6.18;;;19.80;99.90;;;;;;4842380;29;20502;-68
2022/08/11 06:46:42;;;;;;;7.10;5.97;;;19.80;99.90;;;;;;4842777;29;20069;-68
2022/08/11 06:52:05;;;;;;;7.70;5.60;;;19.90;99.90;;;;;;4841522;29;20098;-68
2022/08/11 06:54:40;;;;;;;6.35;5.28;;;20.00;99.90;;;;;;4839988;29;20073;-68
2022/08/11 07:02:47;;;;;;;7.13;5.07;;;20.30;99.90;;;;;;4842094;29;20492;-67
2022/08/11 07:05:52;;;;;;;5.50;4.25;;;20.50;99.90;;;;;;4842208;29;20104;-68
2022/08/11 07:17:23;;;;;;;6.85;3.92;;;21.10;99.90;;;;;;4842152;29;20056;-68
2022/08/11 07:28:54;;;;;;;5.10;4.18;;;21.30;99.90;;;;;;4825547;29;20050;-68
2022/08/11 07:31:13;;;;;;;5.93;3.13;;;21.80;99.90;;;;;;4825519;29;20054;-67
2022/08/11 07:33:45;;;;;;;4.47;3.00;;;22.00;99.90;;;;;;4842738;29;20361;-68
2022/08/11 07:36:12;;;;;;;4.25;3.10;;;22.10;99.90;;;;;;4841666;29;20086;-67
2022/08/11 07:38:43;;;;;;;4.50;2.75;;;22.30;99.90;;;;;;4841768;29;20118;-66
2022/08/11 07:41:17;;;;;;;3.58;3.00;;;22.40;99.90;;;;;;4841723;29;20082;-67
2022/08/11 07:43:55;;;;;;;2.75;2.55;;;22.50;99.90;;;;;;4842253;29;20057;-67
2022/08/11 07:53:14;;;;;;;3.60;2.55;;;23.20;99.90;;;;;;4841637;29;20045;-67
2022/08/11 08:19:04;;;;;;;3.10;1.70;;;24.50;99.90;;;;;;4840180;29;20089;-67
2022/08/11 08:21:31;;;;;;;4.07;1.70;;;24.70;99.90;;;;;;4839651;29;20065;-67
2022/08/11 08:23:57;;;;;;;4.13;1.70;;;24.70;99.90;;;;;;4842374;29;20122;-67
2022/08/11 08:31:53;;;;;;;1.98;1.17;;;25.10;99.90;;;;;;4825832;29;20062;-68
2022/08/11 08:34:19;;;;;;;1.33;1.23;;;25.20;97.30;;;;;;4842725;29;20491;-67
2022/08/11 08:40:54;;;;;;;3.80;1.30;;;25.40;94.90;;;;;;4843860;29;20121;-68
2022/08/11 08:43:22;;;;;;;2.72;1.33;;;25.60;94.90;;;;;;4844364;29;20081;-68
2022/08/11 08:45:58;;;;;;;1.85;1.42;;;25.70;94.40;;;;;;4858411;29;20060;-68
2022/08/11 08:48:26;;;;;;;2.10;1.20;;;25.90;91.70;;;;;;4844859;29;20201;-67
2022/08/11 08:53:48;;;;;;;2.00;1.20;;;26.10;77.50;;;;;;4838749;29;20054;-67
2022/08/11 08:56:13;;;;;;;1.75;1.27;;;26.10;71.20;;;;;;4825333;29;20110;-68
2022/08/11 08:58:41;;;;;;;5.57;1.20;;;26.20;72.10;;;;;;4825481;29;20050;-67
2022/08/11 09:01:09;;;;;;;3.20;1.75;;;26.30;71.20;;;;;;4833679;29;20081;-66
2022/08/11 09:03:37;;;;;;;4.97;1.45;;;26.40;71.50;;;;;;4843639;29;20065;-67
2022/08/11 09:06:02;;;;;;;3.95;1.33;;;26.40;67.40;;;;;;4839851;29;20137;-67
2022/08/11 09:08:31;;;;;;;2.58;1.30;;;26.50;65.70;;;;;;4810072;29;20504;-68
2022/08/11 09:15:32;;;;;;;2.20;1.55;;;26.80;63.00;;;;;;4839870;29;20105;-67
2022/08/11 09:21:41;;;;;;;3.97;1.50;;;27.00;59.80;;;;;;4816724;29;20058;-68
2022/08/11 09:27:42;;;;;;;3.47;1.60;;;27.20;63.30;;;;;;4843553;29;20114;-68
2022/08/11 09:30:11;;;;;;;1.67;1.40;;;27.20;60.40;;;;;;4844128;29;20057;-67
2022/08/11 09:44:45;;;;;;;3.50;2.00;;;27.70;59.50;;;;;;4843344;29;20074;-67
2022/08/11 09:45:15;;;;;;;4.53;1.90;;;27.60;58.90;;;;;;4827017;29;20392;-67
2022/08/11 09:52:09;;;;;;;2.63;1.52;;;27.60;58.90;;;;;;4834198;29;20044;-66
2022/08/11 09:54:37;;;;;;;3.38;1.60;;;27.80;59.00;;;;;;4824171;29;20049;-66
2022/08/11 09:59:55;;;;;;;;;;;27.80;57.70;;;;;;4824788;29;20141;-68
2022/08/11 10:02:47;;;;;;;3.25;1.60;;;27.90;57.40;;;;;;4841944;29;19963;-67
2022/08/11 10:08:51;;;;;;;2.53;1.40;;;28.10;58.10;;;;;;4837932;29;20052;-66
2022/08/11 10:11:22;;;;;;;3.70;1.98;;;28.10;56.80;;;;;;4827878;29;20372;-66
2022/08/11 10:16:40;;;;;;;2.03;1.83;;;28.20;55.40;;;;;;4841747;29;20070;-67
2022/08/11 10:19:08;;;;;;;2.90;1.60;;;28.40;56.10;;;;;;4827074;29;20433;-68
2022/08/11 10:21:41;;;;;;;3.75;1.50;;;28.40;55.10;;;;;;4825881;29;20046;-67
2022/08/11 10:26:54;;;;;;;2.25;1.77;;;28.50;54.60;;;;;;4844782;29;20128;-67
2022/08/11 10:35:37;;;;;;;2.25;1.70;;;28.70;53.60;;;;;;4789125;29;20092;-68
2022/08/11 10:38:03;;;;;;;3.63;1.48;;;28.70;55.00;;;;;;4803915;29;20046;-68
2022/08/11 10:40:31;;;;;;;1.50;1.40;;;28.90;54.60;;;;;;4827314;29;20127;-68
2022/08/11 10:43:02;;;;;;;1.45;1.35;;;28.90;54.30;;;;;;4825962;29;20102;-67
2022/08/11 10:48:40;;;;;;;2.10;1.40;;;28.90;53.00;;;;;;4825970;29;20110;-68
2022/08/11 10:51:12;;;;;;;3.15;1.30;;;28.90;53.50;;;;;;4847141;29;20050;-67
2022/08/11 10:59:43;;;;;;;1.52;1.20;;;29.00;52.30;;;;;;4841498;29;20072;-68
2022/08/11 11:02:14;;;;;;;2.42;1.60;;;29.00;52.60;;;;;;4841955;29;20130;-67
2022/08/11 11:04:55;;;;;;;2.35;1.58;;;29.00;51.60;;;;;;4825769;29;20102;-68
2022/08/11 11:07:25;;;;;;;2.72;1.35;;;29.10;51.60;;;;;;4842089;29;20137;-67
2022/08/11 11:10:01;;;;;;;1.75;1.20;;;29.20;51.30;;;;;;4814536;29;20082;-69
2022/08/11 11:18:28;;;;;;;2.90;1.52;;;29.00;50.50;;;;;;4825706;29;20073;-68
2022/08/11 11:21:03;;;;;;;2.10;1.58;;;29.10;51.00;;;;;;4825580;29;20060;-70
2022/08/11 11:23:53;;;;;;;2.63;1.60;;;29.10;50.20;;;;;;4809892;29;20050;-69
2022/08/11 11:26:37;;;;;;;1.63;1.50;;;29.20;49.90;;;;;;4825171;29;20053;-70
2022/08/11 11:29:24;;;;;;;3.88;1.73;;;29.30;50.00;;;;;;4840896;29;20090;-70
2022/08/11 11:32:21;;;;;;;2.53;1.48;;;29.30;50.10;;;;;;4842385;29;20050;-69
2022/08/11 11:34:53;;;;;;;2.90;1.50;;;29.40;50.50;;;;;;4825735;29;20051;-70
2022/08/11 11:37:19;;;;;;;;;;;29.40;49.90;;;;;;4842110;29;20057;-70
2022/08/11 11:39:45;;;;;;;2.65;1.35;;;29.40;50.40;;;;;;4842241;29;19969;-70
2022/08/11 11:42:12;;;;;;;2.42;1.50;;;29.40;50.60;;;;;;4840969;29;20056;-70
2022/08/11 11:44:38;;;;;;;2.92;1.40;;;29.50;49.80;;;;;;4841751;29;20120;-68
2022/08/11 11:47:05;;;;;;;1.98;1.27;;;29.60;49.30;;;;;;4841327;29;20479;-68
2022/08/11 11:49:34;;;;;;;2.20;1.20;;;29.70;49.50;;;;;;4825696;29;20058;-68
2022/08/11 11:52:00;;;;;;;6.88;1.33;;;29.70;48.50;;;;;;4841719;29;20061;-68
2022/08/11 11:54:29;;;;;;;3.83;1.20;;;29.70;48.20;;;;;;4841359;29;20065;-68
2022/08/11 11:56:56;;;;;;;2.38;1.27;;;29.70;47.90;;;;;;4838800;29;20053;-68
2022/08/11 12:02:57;;;;;;;1.48;1.25;;;29.70;47.40;;;;;;4770728;30;20051;-67
2022/08/11 12:05:25;;;;;;;1.40;1.30;;;29.70;47.50;;;;;;4770595;30;20055;-67
2022/08/11 12:14:59;;;;;;;5.97;1.58;;;29.70;46.90;;;;;;4745017;30;20055;-67
2022/08/11 12:17:29;;;;;;;4.13;1.13;;;29.80;48.40;;;;;;4753116;30;20131;-68
2022/08/11 12:20:23;;;;;;;1.13;1.02;;;29.80;47.60;;;;;;4738574;30;20388;-67
2022/08/11 12:28:44;;;;;;;2.53;1.27;;;29.90;47.50;;;;;;4785955;29;20042;-66
2022/08/11 12:31:11;;;;;;;2.33;1.27;;;30.00;47.30;;;;;;4795599;29;20073;-67
2022/08/11 12:33:39;;;;;;;2.25;1.13;;;30.00;47.60;;;;;;4827002;29;20049;-68
2022/08/11 12:36:08;;;;;;;1.50;1.40;;;30.00;47.20;;;;;;4826149;29;20054;-67
2022/08/11 12:39:02;;;;;;;3.72;1.30;;;30.10;47.30;;;;;;4826429;29;20077;-67
2022/08/11 13:07:01;;;;;;;3.13;1.40;;;30.20;46.30;;;;;;4841449;29;20456;-68
2022/08/11 13:09:31;;;;;;;3.42;1.52;;;30.20;46.30;;;;;;4844251;29;20073;-68
2022/08/11 13:43:38;;;;;;;2.45;1.42;;;30.20;47.00;;;;;;4862170;29;20036;-68
2022/08/11 13:46:34;;;;;;;1.80;1.30;;;30.20;45.70;;;;;;4859790;29;20424;-68
2022/08/11 13:49:01;;;;;;;2.97;1.20;;;30.20;46.40;;;;;;4861720;29;20060;-68
2022/08/11 13:59:39;;;;;;;1.48;1.30;;;30.30;46.90;;;;;;4860913;29;20061;-68
2022/08/11 14:02:12;;;;;;;5.50;1.50;;;30.30;46.00;;;;;;4844906;29;20083;-68
2022/08/11 14:05:10;;;;;;;1.73;1.20;;;30.20;46.30;;;;;;4861750;29;20145;-68
2022/08/11 14:07:57;;;;;;;1.55;1.45;;;30.20;46.90;;;;;;4860148;29;20045;-68
2022/08/11 14:10:27;;;;;;;1.60;1.42;;;30.20;46.70;;;;;;4861658;29;20053;-69
2022/08/11 14:15:45;;;;;;;2.47;1.40;;;30.40;47.20;;;;;;4861727;29;20098;-68
2022/08/11 14:19:00;;;;;;;1.60;1.20;;;30.30;47.10;;;;;;4860344;29;20094;-68
2022/08/11 14:24:48;;;;;;;2.85;1.35;;;30.40;46.80;;;;;;4861377;29;20044;-68
2022/08/11 14:27:15;;;;;;;2.15;1.30;;;30.40;46.70;;;;;;4858034;29;20144;-68
2022/08/11 14:34:09;;;;;;;1.50;1.40;;;30.30;46.00;;;;;;4861785;29;20060;-69
2022/08/11 14:47:04;;;;;;;2.40;1.55;;;29.80;47.20;;;;;;4840484;29;20046;-69
2022/08/11 14:49:35;;;;;;;1.15;1.13;;;29.90;47.00;;;;;;4825334;29;20424;-68
2022/08/11 14:52:22;;;;;;;1.65;1.45;;;29.80;46.60;;;;;;4824991;29;20077;-68
2022/08/11 14:58:11;;;;;;;1.55;1.27;;;29.90;47.00;;;;;;4822287;29;20080;-68
2022/08/11 15:00:40;;;;;;;3.40;1.30;;;29.90;47.20;;;;;;4834994;29;20044;-68
2022/08/11 15:03:23;;;;;;;3.33;1.52;;;30.00;47.30;;;;;;4819685;29;20479;-68
2022/08/11 15:05:56;;;;;;;3.03;1.67;;;30.00;47.10;;;;;;4838104;29;20095;-68
2022/08/11 15:12:07;;;;;;;1.23;1.13;;;30.00;47.10;;;;;;4858420;29;20050;-68
2022/08/11 15:17:21;;;;;;;1.55;1.25;;;29.60;46.90;;;;;;4859208;29;20053;-68
2022/08/11 15:25:21;;;;;;;1.83;1.17;;;29.60;47.00;;;;;;4860378;29;20049;-68
2022/08/11 15:39:23;;;;;;;2.55;1.20;;;29.50;46.70;;;;;;4859199;29;20049;-67
2022/08/11 15:47:41;;;;;;;1.42;1.02;;;29.40;46.30;;;;;;4852223;29;20471;-67
2022/08/11 15:50:13;;;;;;;3.65;1.42;;;29.40;46.80;;;;;;4842236;29;20058;-67
2022/08/11 15:52:48;;;;;;;1.63;1.15;;;29.40;46.50;;;;;;4843375;29;20069;-67
2022/08/11 15:55:15;;;;;;;4.40;1.17;;;29.40;46.50;;;;;;4868290;29;20053;-68
2022/08/11 16:05:59;;;;;;;1.20;1.10;;;29.20;47.00;;;;;;4859337;29;20132;-68
2022/08/11 16:08:29;;;;;;;2.17;1.20;;;29.20;46.70;;;;;;4859245;29;20063;-67
2022/08/11 16:10:56;;;;;;;2.20;1.42;;;29.20;46.80;;;;;;4859936;29;20052;-67
2022/08/11 16:19:09;;;;;;;3.45;1.42;;;29.10;47.20;;;;;;4857612;29;20199;-67
2022/08/11 16:25:41;;;;;;;1.75;1.60;;;29.10;48.10;;;;;;4856127;29;20087;-67
2022/08/11 16:28:33;;;;;;;3.33;1.13;;;28.80;47.70;;;;;;4845267;29;20046;-67
2022/08/11 16:40:59;;;;;;;2.63;1.50;;;29.00;48.60;;;;;;4839454;29;20046;-67
2022/08/11 16:52:02;;;;;;;2.08;1.10;;;28.80;51.10;;;;;;4842392;29;20029;-67
2022/08/11 16:54:28;;;;;;;2.40;1.40;;;28.70;51.10;;;;;;4843793;29;20057;-67
2022/08/11 17:19:37;;;;;;;2.03;1.10;;;28.90;51.90;;;;;;4776661;29;20043;-68
2022/08/11 17:25:16;;;;;;;1.70;1.30;;;28.50;52.80;;;;;;4781474;29;20120;-68
2022/08/11 17:27:43;;;;;;;3.95;1.40;;;28.20;53.10;;;;;;4776051;30;20534;-67
2022/08/11 17:30:10;;;;;;;2.10;1.30;;;28.10;53.40;;;;;;4837524;29;20069;-68
2022/08/11 17:35:50;;;;;;;3.47;1.50;;;27.90;53.80;;;;;;4842512;29;20465;-68
2022/08/11 17:39:09;;;;;;;3.17;1.50;;;27.80;54.10;;;;;;4843134;29;20084;-68
2022/08/11 17:49:19;;;;;;;6.30;1.92;;;27.50;55.50;;;;;;4841847;29;20116;-68
